Terminal Aerodrome Forecast
Issued by NWS

Home | Current Version | Previous Version | Text Only | Print | Product List | Glossary On
Versions: 1 2 3 4 5 6 7 8 9 10 11 12 13 14 15 16 17 18 19 20 21 22 23 24 25 26 27 28 29 30 31 32 33 34 35 36 37 38 39 40 41 42 43 44 45 46
000
FTAK31 PAFA 260013 AAA
TAFAFA
TAF AMD
PAFA 260013Z 2600/2706 00000KT 5SM -SN BR FEW025 SCT060 OVC080
      TEMPO 2600/2602 2SM BR
     FM260200 00000KT 6SM BR SCT060
     FM261000 00000KT 2SM BR SCT002
     FM261500 00000KT 1/2SM FG SCT002
     FM270000 00000KT 3SM BR FEW002=

USA.gov is the U.S. government's official web portal to all federal, state and local government web resources and services.